Time;durP1;ratioP1;P1;durP2;ratioP2;P2;SDS_P1;SDS_P2;PMS_P1;PMS_P2;Temp;Humidity;BMP_temperature;BMP_pressure;BME280_temperature;BME280_humidity;BME280_pressure;Samples;Min_cycle;Max_cycle;Signal;HPM_P1;HPM_P2
2022/06/06 00:01:54;;;;;;;4.80;2.20;;;;;;;13.44;100.00;98853.22;5068745;28;20040;-71
2022/06/06 00:04:20;;;;;;;5.35;2.60;;;;;;;13.43;100.00;98846.94;5067310;28;20073;-72
2022/06/06 00:06:46;;;;;;;3.67;2.40;;;;;;;13.32;100.00;98853.09;5064035;28;20031;-72
2022/06/06 00:09:14;;;;;;;3.90;1.88;;;;;;;13.22;100.00;98847.28;5061415;28;20024;-71
2022/06/06 00:11:40;;;;;;;11.55;2.40;;;;;;;13.44;100.00;98850.50;5060293;28;20390;-72
2022/06/06 00:14:06;;;;;;;4.50;2.20;;;;;;;13.59;100.00;98848.28;5063864;28;20112;-72
2022/06/06 00:16:32;;;;;;;3.38;1.90;;;;;;;13.53;100.00;98846.47;5068441;28;20402;-72
2022/06/06 00:18:58;;;;;;;2.58;1.90;;;;;;;13.53;100.00;98851.91;5062122;28;20035;-71
2022/06/06 00:21:24;;;;;;;7.55;2.42;;;;;;;13.47;100.00;98850.06;5066770;28;20539;-74
2022/06/06 00:23:49;;;;;;;3.03;2.05;;;;;;;13.32;100.00;98843.06;5058673;28;20155;-72
2022/06/06 00:26:15;;;;;;;4.18;2.20;;;;;;;13.35;100.00;98848.03;5064594;28;20099;-72
2022/06/06 00:28:44;;;;;;;3.35;2.20;;;;;;;13.33;100.00;98846.59;5068158;28;20454;-72
2022/06/06 00:36:40;;;;;;;5.10;2.55;;;;;;;13.36;100.00;98818.97;5060832;28;20031;-72
2022/06/06 00:39:07;;;;;;;7.88;2.58;;;;;;;13.55;100.00;98831.59;5052105;28;20025;-72
2022/06/06 00:41:39;;;;;;;3.55;2.35;;;;;;;13.68;100.00;98825.22;5058667;28;20020;-72
2022/06/06 00:44:09;;;;;;;4.03;2.05;;;;;;;13.56;100.00;98829.69;5064314;28;20473;-72
2022/06/06 00:46:39;;;;;;;3.17;2.28;;;;;;;13.52;100.00;98842.09;5060742;28;20432;-72
2022/06/06 00:49:08;;;;;;;5.18;2.45;;;;;;;13.67;100.00;98834.41;5058406;28;20111;-75
2022/06/06 00:51:34;;;;;;;;;;;;;;;13.71;100.00;98830.19;5070538;28;20024;-73
2022/06/06 00:53:59;;;;;;;4.55;2.50;;;;;;;13.75;100.00;98833.28;5076709;28;20279;-72
2022/06/06 00:56:40;;;;;;;3.60;2.20;;;;;;;13.69;100.00;98821.44;5070119;28;20028;-72
2022/06/06 00:59:12;;;;;;;5.47;1.90;;;;;;;13.68;100.00;98825.22;5061436;28;20040;-72
2022/06/06 01:01:39;;;;;;;5.93;2.38;;;;;;;13.50;100.00;98817.00;5063479;28;20060;-72
2022/06/06 01:04:05;;;;;;;4.25;2.00;;;;;;;13.08;100.00;98800.38;5061868;28;20676;-72
2022/06/06 01:06:35;;;;;;;6.03;2.30;;;;;;;13.06;100.00;98830.44;5061999;28;20142;-72
2022/06/06 01:09:01;;;;;;;7.30;2.35;;;;;;;12.80;100.00;98807.00;5059284;28;20115;-72
2022/06/06 01:11:26;;;;;;;4.18;2.13;;;;;;;12.77;100.00;98799.31;5062350;28;20025;-73
2022/06/06 01:13:54;;;;;;;6.70;2.60;;;;;;;12.88;100.00;98809.47;5063604;28;20028;-72
2022/06/06 01:16:26;;;;;;;4.20;2.40;;;;;;;13.14;100.00;98815.78;5065496;28;20020;-72
2022/06/06 01:19:05;;;;;;;6.47;2.50;;;;;;;13.15;100.00;98792.97;5063763;28;20051;-72
2022/06/06 01:21:45;;;;;;;3.00;2.40;;;;;;;13.30;100.00;98809.84;5064765;28;20571;-72
2022/06/06 01:24:33;;;;;;;6.85;2.60;;;;;;;13.27;100.00;98804.84;5068421;28;20115;-72
2022/06/06 01:27:25;;;;;;;4.97;2.45;;;;;;;13.25;100.00;98815.06;5061155;28;20024;-72
2022/06/06 01:29:59;;;;;;;6.28;2.22;;;;;;;13.22;100.00;98793.78;5061978;28;20021;-72
2022/06/06 01:32:27;;;;;;;4.30;2.30;;;;;;;13.13;100.00;98781.53;5063280;28;20031;-72
2022/06/06 01:34:54;;;;;;;5.32;2.13;;;;;;;13.21;100.00;98807.59;5062321;28;20547;-72
2022/06/06 01:37:39;;;;;;;3.65;2.28;;;;;;;13.01;100.00;98813.16;5072888;28;20044;-72
2022/06/06 01:40:09;;;;;;;5.00;2.58;;;;;;;12.96;100.00;98804.81;5070500;28;20447;-72
2022/06/06 01:42:53;;;;;;;3.72;2.90;;;;;;;12.92;100.00;98804.44;5062794;28;20071;-72
2022/06/06 01:45:30;;;;;;;7.38;2.78;;;;;;;12.99;100.00;98805.22;5066310;28;20063;-72
2022/06/06 01:48:08;;;;;;;4.35;2.80;;;;;;;12.89;100.00;98808.44;5066509;28;20024;-73
2022/06/06 01:50:37;;;;;;;4.80;2.67;;;;;;;12.94;100.00;98805.03;5066053;28;20047;-72
2022/06/06 01:53:06;;;;;;;4.28;2.78;;;;;;;12.89;100.00;98805.72;5067793;28;20038;-72
2022/06/06 01:55:35;;;;;;;4.43;2.65;;;;;;;12.80;100.00;98785.28;5073589;28;20021;-72
2022/06/06 01:58:03;;;;;;;;;;;;;;;12.86;100.00;98805.28;5071322;28;20398;-72
2022/06/06 02:00:30;;;;;;;6.57;2.80;;;;;;;12.79;100.00;98793.66;5076154;28;19912;-75
2022/06/06 02:02:56;;;;;;;6.35;2.95;;;;;;;12.64;100.00;98783.09;5070912;28;20025;-71
2022/06/06 02:05:21;;;;;;;4.72;2.85;;;;;;;12.44;100.00;98767.75;5067576;28;20039;-71
2022/06/06 02:07:47;;;;;;;4.00;2.55;;;;;;;12.64;100.00;98796.66;5093401;22;20056;-74
2022/06/06 02:10:14;;;;;;;5.57;3.33;;;;;;;12.63;100.00;98792.28;5074105;28;20114;-72
2022/06/06 02:12:41;;;;;;;3.42;3.08;;;;;;;12.51;100.00;98786.69;5065816;28;20036;-73
2022/06/06 02:15:09;;;;;;;5.50;2.97;;;;;;;12.62;100.00;98774.31;5068189;28;20394;-73
2022/06/06 02:17:35;;;;;;;5.22;2.95;;;;;;;12.92;100.00;98780.84;5067639;28;20016;-72
2022/06/06 02:20:04;;;;;;;7.38;4.10;;;;;;;12.99;100.00;98779.94;5051638;28;20508;-73
2022/06/06 02:22:30;;;;;;;7.18;2.67;;;;;;;13.02;100.00;98782.22;5041852;28;20127;-73
2022/06/06 02:24:56;;;;;;;7.95;2.70;;;;;;;12.85;100.00;98769.16;5053163;28;20470;-72
2022/06/06 02:27:21;;;;;;;4.53;3.00;;;;;;;12.84;100.00;98791.13;5056678;28;20032;-72
2022/06/06 02:29:46;;;;;;;7.95;2.60;;;;;;;12.67;100.00;98782.66;5064496;28;20029;-72
2022/06/06 02:32:12;;;;;;;6.47;2.85;;;;;;;12.48;100.00;98771.69;5054985;28;20048;-72
2022/06/06 02:34:38;;;;;;;10.98;2.97;;;;;;;12.42;100.00;98764.41;5054210;28;20023;-73
2022/06/06 02:37:04;;;;;;;5.72;3.30;;;;;;;12.40;100.00;98769.22;5052046;28;20039;-73
2022/06/06 02:39:30;;;;;;;5.43;3.33;;;;;;;12.37;100.00;98753.38;5052685;28;20048;-73
2022/06/06 02:41:56;;;;;;;4.28;2.85;;;;;;;12.52;100.00;98774.78;5040500;28;20530;-73
2022/06/06 02:44:22;;;;;;;4.72;3.53;;;;;;;12.54;100.00;98788.16;5050014;28;20033;-72
2022/06/06 02:46:47;;;;;;;6.57;3.30;;;;;;;12.36;100.00;98751.69;5041103;28;20028;-71
2022/06/06 02:49:12;;;;;;;6.15;3.05;;;;;;;12.40;100.00;98774.66;5051219;28;20422;-72
2022/06/06 02:51:38;;;;;;;8.95;3.35;;;;;;;12.54;100.00;98788.16;5050980;28;20024;-73
2022/06/06 02:54:03;;;;;;;7.28;3.60;;;;;;;12.43;100.00;98801.34;5057568;28;20420;-73
2022/06/06 02:56:29;;;;;;;4.97;3.30;;;;;;;12.28;100.00;98782.63;5046632;28;20542;-72
2022/06/06 02:58:57;;;;;;;4.22;3.15;;;;;;;12.21;100.00;98762.84;5057047;28;20020;-72
2022/06/06 03:01:22;;;;;;;5.28;3.35;;;;;;;12.30;100.00;98800.56;5047788;28;20032;-73
2022/06/06 03:03:48;;;;;;;6.63;3.80;;;;;;;12.40;100.00;98790.09;5049991;28;20025;-73
2022/06/06 03:06:28;;;;;;;8.13;3.67;;;;;;;12.60;100.00;98806.28;5053074;28;20035;-73
2022/06/06 03:08:53;;;;;;;;;;;;;;;12.45;100.00;98772.13;5052742;28;20025;-73
2022/06/06 03:11:58;;;;;;;7.73;3.50;;;;;;;12.52;100.00;98809.22;5057796;28;19916;-73
2022/06/06 03:14:41;;;;;;;4.72;3.50;;;;;;;12.36;100.00;98816.81;5022580;28;20298;-73
2022/06/06 03:20:49;;;;;;;7.05;3.65;;;;;;;12.32;100.00;98818.31;5052390;28;20044;-72
2022/06/06 03:23:32;;;;;;;5.88;3.85;;;;;;;12.18;100.00;98820.25;5063298;28;20009;-72
2022/06/06 03:26:13;;;;;;;9.30;3.75;;;;;;;12.03;100.00;98800.66;5055102;28;20028;-71
2022/06/06 03:29:06;;;;;;;6.57;3.72;;;;;;;12.17;100.00;98828.56;5051328;28;20070;-71
2022/06/06 03:31:41;;;;;;;8.15;5.28;;;;;;;12.38;100.00;98831.00;5048179;28;20123;-72
2022/06/06 03:34:25;;;;;;;8.25;4.80;;;;;;;12.45;100.00;98831.81;5056591;28;20040;-72
2022/06/06 03:37:19;;;;;;;5.22;4.22;;;;;;;12.33;100.00;98838.94;5048383;28;20108;-71
2022/06/06 03:39:54;;;;;;;7.13;4.20;;;;;;;12.25;100.00;98837.28;5041117;28;20029;-72
2022/06/06 03:42:44;;;;;;;7.78;4.55;;;;;;;12.15;100.00;98830.66;5046596;28;20029;-71
2022/06/06 03:45:18;;;;;;;6.82;4.43;;;;;;;12.23;100.00;98847.53;5048185;28;20061;-72
2022/06/06 03:47:50;;;;;;;6.03;3.30;;;;;;;12.18;100.00;98849.22;5051382;28;20025;-72
2022/06/06 03:50:40;;;;;;;6.50;2.95;;;;;;;12.22;100.00;98848.59;5046895;28;20017;-71
2022/06/06 03:53:13;;;;;;;7.93;3.70;;;;;;;12.11;100.00;98840.28;5041390;28;20029;-72
2022/06/06 03:55:56;;;;;;;13.18;4.32;;;;;;;12.22;100.00;98855.88;5053668;28;20386;-72
2022/06/06 03:58:23;;;;;;;7.35;4.20;;;;;;;12.26;100.00;98836.28;5049986;28;20028;-72
2022/06/06 04:00:50;;;;;;;6.25;4.22;;;;;;;12.38;100.00;98841.84;5048162;28;20104;-72
2022/06/06 04:03:16;;;;;;;8.88;4.38;;;;;;;12.46;100.00;98844.31;5053590;28;20029;-72
2022/06/06 04:05:43;;;;;;;9.18;3.90;;;;;;;12.57;100.00;98850.97;5051274;28;20028;-72
2022/06/06 04:08:09;;;;;;;7.70;4.50;;;;;;;12.65;100.00;98863.47;5049908;28;20041;-72
2022/06/06 04:10:53;;;;;;;6.32;2.90;;;;;;;12.64;100.00;98869.94;5047049;28;20047;-72
2022/06/06 04:13:47;;;;;;;6.35;3.38;;;;;;;12.74;100.00;98862.19;5063068;28;20036;-71
2022/06/06 04:16:41;;;;;;;4.47;3.55;;;;;;;12.88;100.00;98871.09;5068585;28;20033;-72
2022/06/06 04:19:35;;;;;;;5.53;3.50;;;;;;;13.06;100.00;98864.94;5043732;28;20099;-72
2022/06/06 04:22:29;;;;;;;5.15;3.67;;;;;;;13.39;100.00;98864.75;5077056;28;20025;-71
2022/06/06 04:25:14;;;;;;;7.88;3.53;;;;;;;13.49;100.00;98865.09;5054836;28;20025;-72
2022/06/06 04:28:06;;;;;;;7.63;3.47;;;;;;;13.53;100.00;98860.06;5044422;28;20025;-72
2022/06/06 04:30:45;;;;;;;6.95;3.35;;;;;;;13.38;100.00;98836.72;5050131;28;20513;-72
2022/06/06 04:33:42;;;;;;;3.53;3.10;;;;;;;13.32;100.00;98851.22;5048386;28;20021;-72
2022/06/06 04:36:16;;;;;;;9.00;3.03;;;;;;;13.36;100.00;98863.31;5040647;28;20021;-72
2022/06/06 04:38:52;;;;;;;6.65;3.40;;;;;;;13.27;100.00;98845.59;5055758;28;20486;-72
2022/06/06 04:41:39;;;;;;;8.63;3.05;;;;;;;13.48;100.00;98868.84;5044190;28;20092;-72
2022/06/06 04:44:31;;;;;;;4.43;3.13;;;;;;;13.67;100.00;98856.16;5047525;28;20032;-72
2022/06/06 04:47:07;;;;;;;5.10;2.92;;;;;;;13.83;100.00;98854.75;5047758;28;20032;-72
2022/06/06 04:49:33;;;;;;;2.97;2.42;;;;;;;14.05;100.00;98851.66;5042958;28;20103;-72
2022/06/06 04:52:01;;;;;;;3.47;2.65;;;;;;;14.24;100.00;98859.59;5044532;28;20088;-72
2022/06/06 04:54:29;;;;;;;5.22;2.33;;;;;;;14.50;100.00;98854.91;5049068;28;20032;-73
2022/06/06 04:56:55;;;;;;;8.15;3.20;;;;;;;14.78;100.00;98867.19;5050700;28;20037;-75
2022/06/06 04:59:24;;;;;;;5.15;2.67;;;;;;;14.98;100.00;98864.19;5054812;28;20051;-77
2022/06/06 05:01:49;;;;;;;7.00;2.78;;;;;;;15.16;100.00;98850.50;5054901;28;20089;-77
2022/06/06 05:04:14;;;;;;;5.18;3.42;;;;;;;15.51;100.00;98856.06;5057720;28;20075;-76
2022/06/06 05:06:59;;;;;;;8.43;2.85;;;;;;;15.68;100.00;98858.09;5057202;28;20028;-74
2022/06/06 05:09:43;;;;;;;5.65;3.00;;;;;;;15.85;100.00;98867.31;5053082;28;20021;-71
2022/06/06 05:12:34;;;;;;;6.57;2.55;;;;;;;15.98;100.00;98853.44;5050287;28;20057;-72
2022/06/06 05:15:11;;;;;;;5.55;2.70;;;;;;;16.10;100.00;98863.50;5048929;28;20020;-73
2022/06/06 05:17:43;;;;;;;4.20;2.50;;;;;;;16.19;100.00;98865.63;5054064;28;20115;-75
2022/06/06 05:20:27;;;;;;;8.65;2.45;;;;;;;16.53;100.00;98873.19;5044577;28;20025;-75
2022/06/06 05:23:19;;;;;;;9.93;2.22;;;;;;;16.80;100.00;98860.69;5043874;28;20061;-75
2022/06/06 05:26:22;;;;;;;4.85;2.30;;;;;;;17.16;100.00;98844.97;5050542;28;20029;-75
2022/06/06 05:29:02;;;;;;;4.90;2.75;;;;;;;17.23;100.00;98858.47;5054654;28;20033;-75
2022/06/06 05:31:44;;;;;;;6.53;2.88;;;;;;;17.35;100.00;98852.97;5051734;28;20021;-76
2022/06/06 05:34:20;;;;;;;4.93;2.55;;;;;;;17.53;100.00;98877.38;5049000;28;20135;-75
2022/06/06 05:37:15;;;;;;;4.55;2.05;;;;;;;18.04;100.00;98883.69;5083096;28;20040;-75
2022/06/06 05:40:13;;;;;;;3.50;2.28;;;;;;;18.38;100.00;98886.38;5058927;28;20023;-76
2022/06/06 05:42:52;;;;;;;5.15;2.50;;;;;;;18.45;100.00;98878.81;5055238;28;20051;-75
2022/06/06 05:45:20;;;;;;;4.65;2.17;;;;;;;18.40;100.00;98892.44;5055238;28;20033;-75
2022/06/06 05:47:58;;;;;;;4.53;2.70;;;;;;;18.23;100.00;98892.47;5055290;28;20029;-77
2022/06/06 05:50:27;;;;;;;4.40;2.20;;;;;;;18.08;100.00;98881.31;5055076;28;20111;-72
2022/06/06 05:53:16;;;;;;;2.87;2.03;;;;;;;17.91;100.00;98890.34;5052724;28;20032;-72
2022/06/06 05:56:04;;;;;;;4.43;2.35;;;;;;;17.79;100.00;98888.72;5053823;28;20761;-73
2022/06/06 05:58:52;;;;;;;4.53;2.47;;;;;;;17.74;100.00;98879.38;5008381;28;20610;-73
2022/06/06 06:01:45;;;;;;;4.53;2.28;;;;;;;18.30;100.00;98887.66;5050379;28;20025;-72
2022/06/06 06:04:34;;;;;;;3.10;2.15;;;;;;;18.70;100.00;98891.19;5045495;28;20044;-72
2022/06/06 06:07:39;;;;;;;5.13;2.42;;;;;;;18.43;100.00;98822.63;5052558;28;20103;-72
2022/06/06 06:10:52;;;;;;;4.60;2.15;;;;;;;18.91;100.00;98900.53;5027556;28;20041;-71
2022/06/06 06:13:49;;;;;;;2.78;2.05;;;;;;;19.15;100.00;98901.09;5048560;28;20116;-69
2022/06/06 06:16:16;;;;;;;3.65;2.42;;;;;;;19.45;100.00;98887.72;5040804;28;20480;-72
2022/06/06 06:18:54;;;;;;;3.17;2.28;;;;;;;19.83;100.00;98893.28;5058497;28;20028;-67
2022/06/06 06:21:24;;;;;;;4.05;2.17;;;;;;;20.13;100.00;98892.72;5046749;28;20048;-67
2022/06/06 06:23:59;;;;;;;3.70;2.55;;;;;;;20.45;100.00;98895.41;5040632;28;20025;-67
2022/06/06 06:26:28;;;;;;;4.63;2.30;;;;;;;20.45;100.00;98897.31;5047484;28;20026;-67
2022/06/06 06:28:55;;;;;;;;;;;;;;;20.37;100.00;98898.66;5049491;28;20040;-67
2022/06/06 06:31:32;;;;;;;6.68;2.50;;;;;;;19.85;100.00;98908.41;5046702;28;19932;-67
2022/06/06 06:34:20;;;;;;;5.68;2.10;;;;;;;19.63;100.00;98915.88;5045376;28;20075;-67
2022/06/06 06:36:48;;;;;;;5.40;3.20;;;;;;;19.75;100.00;98913.81;5045622;28;20535;-69
2022/06/06 06:39:32;;;;;;;6.68;3.33;;;;;;;19.77;100.00;98924.56;5045218;28;20025;-68
2022/06/06 06:42:11;;;;;;;3.55;2.53;;;;;;;19.69;100.00;98923.09;5049562;28;20035;-69
2022/06/06 06:44:47;;;;;;;5.25;2.80;;;;;;;19.67;100.00;98934.34;5047233;28;20064;-72
2022/06/06 06:47:21;;;;;;;4.53;2.30;;;;;;;19.74;100.00;98939.63;5046848;28;20454;-70
2022/06/06 06:50:01;;;;;;;5.15;2.40;;;;;;;20.43;100.00;98932.47;5051541;28;20253;-69
2022/06/06 06:52:42;;;;;;;6.03;2.28;;;;;;;21.31;100.00;98949.19;5065234;28;20033;-71
2022/06/06 06:55:10;;;;;;;3.90;2.53;;;;;;;21.91;100.00;98943.31;5046453;28;20124;-69
2022/06/06 06:57:50;;;;;;;5.43;2.50;;;;;;;22.73;100.00;98944.91;5046401;28;20037;-72
2022/06/06 07:00:19;;;;;;;2.72;2.13;;;;;;;23.51;90.57;98954.56;5049966;28;20029;-72
2022/06/06 07:09:06;;;;;;;4.78;2.38;;;;;;;26.67;63.87;98932.59;5052651;28;20747;-76
2022/06/06 07:11:59;;;;;;;5.15;2.42;;;;;;;25.78;68.27;98936.28;5054690;28;20032;-77
2022/06/06 07:14:53;;;;;;;4.45;2.53;;;;;;;26.24;62.99;98935.53;5052358;28;20048;-76
2022/06/06 07:17:20;;;;;;;4.78;2.40;;;;;;;26.88;57.90;98932.19;5052608;28;20025;-69
2022/06/06 07:19:50;;;;;;;6.38;2.83;;;;;;;27.00;57.21;98931.69;5048167;28;20035;-69
2022/06/06 07:22:17;;;;;;;4.53;2.20;;;;;;;27.71;58.63;98938.50;5048965;28;20553;-67
2022/06/06 07:24:45;;;;;;;5.40;2.92;;;;;;;28.01;54.06;98940.88;5051864;28;20029;-69
2022/06/06 07:27:11;;;;;;;3.30;2.75;;;;;;;27.04;57.40;98929.94;5052545;28;20024;-74
2022/06/06 07:29:37;;;;;;;3.55;2.50;;;;;;;28.78;49.87;98937.00;5044285;28;20091;-72
2022/06/06 07:32:08;;;;;;;4.18;2.50;;;;;;;28.17;53.69;98934.66;5046558;28;20021;-71
2022/06/06 07:35:15;;;;;;;5.45;2.50;;;;;;;27.60;56.65;98931.53;5050954;28;20083;-74
2022/06/06 07:37:49;;;;;;;4.25;2.40;;;;;;;26.99;57.98;98911.44;5047636;28;20056;-71
2022/06/06 07:40:37;;;;;;;4.03;2.30;;;;;;;25.71;67.25;98899.78;5046651;28;20032;-69
2022/06/06 07:43:09;;;;;;;2.58;2.17;;;;;;;25.10;68.83;98915.31;5045807;28;20120;-72
2022/06/06 07:45:43;;;;;;;8.90;2.58;;;;;;;24.63;72.17;98896.78;5051382;28;20025;-71
2022/06/06 07:48:15;;;;;;;4.75;2.97;;;;;;;24.22;73.95;98917.31;5041468;28;20036;-65
2022/06/06 07:51:11;;;;;;;3.80;2.55;;;;;;;23.25;83.99;98912.47;5050198;28;20032;-70
2022/06/06 07:54:11;;;;;;;4.75;3.15;;;;;;;22.16;90.16;98909.41;5045380;28;20025;-74
2022/06/06 07:56:58;;;;;;;3.47;2.55;;;;;;;21.77;100.00;98912.69;5051990;28;20028;-73
2022/06/06 07:59:47;;;;;;;3.45;2.80;;;;;;;21.99;99.32;98915.19;5049143;28;20418;-71
2022/06/06 08:02:27;;;;;;;6.00;2.50;;;;;;;21.71;100.00;98895.34;5046331;28;20025;-73
2022/06/06 08:05:17;;;;;;;5.55;3.20;;;;;;;22.30;99.42;98907.78;5045885;28;20033;-74
2022/06/06 08:10:16;;;;;;;4.25;2.75;;;;;;;24.84;73.14;98900.13;5046345;28;20635;-76
2022/06/06 08:13:02;;;;;;;4.25;2.75;;;;;;;27.88;55.51;98893.38;5035939;28;20124;-78
2022/06/06 08:15:50;;;;;;;4.63;2.60;;;;;;;28.36;50.51;98903.84;5027651;28;20371;-75
2022/06/06 08:18:23;;;;;;;3.45;2.40;;;;;;;29.28;48.86;98898.50;5049062;28;20382;-74
2022/06/06 08:21:13;;;;;;;6.32;2.70;;;;;;;28.29;50.58;98905.41;5041676;28;20024;-70
2022/06/06 08:23:40;;;;;;;3.10;2.33;;;;;;;27.49;54.56;98888.44;5045316;28;20033;-71
2022/06/06 08:26:07;;;;;;;5.40;2.38;;;;;;;27.39;57.34;98899.78;5049205;28;20086;-72
2022/06/06 08:28:33;;;;;;;6.60;2.40;;;;;;;26.52;62.85;98874.63;5051906;28;20020;-74
2022/06/06 08:30:59;;;;;;;5.10;2.28;;;;;;;27.28;57.23;98896.41;5051245;28;20032;-69
2022/06/06 08:33:25;;;;;;;3.97;2.28;;;;;;;28.46;54.19;98890.81;5048407;28;20029;-69
2022/06/06 08:36:09;;;;;;;4.28;2.50;;;;;;;30.24;46.70;98887.41;5049892;28;20108;-69
2022/06/06 08:39:02;;;;;;;2.80;2.20;;;;;;;31.40;42.88;98875.06;5036943;28;20043;-69
2022/06/06 08:42:12;;;;;;;2.75;2.00;;;;;;;33.38;39.74;98880.84;5041553;28;20056;-70
2022/06/06 08:44:49;;;;;;;7.22;2.05;;;;;;;35.61;35.08;98875.53;5023963;28;20048;-70
2022/06/06 08:48:03;;;;;;;3.63;1.80;;;;;;;34.00;37.16;98881.47;5033366;28;20020;-69
2022/06/06 08:50:51;;;;;;;5.70;2.35;;;;;;;31.97;40.74;98889.63;5036017;28;20043;-67
2022/06/06 08:53:16;;;;;;;2.88;2.30;;;;;;;31.81;39.53;98879.03;5037078;28;20023;-70
2022/06/06 08:56:09;;;;;;;4.38;2.40;;;;;;;28.40;47.35;98878.97;5045181;28;20028;-68
2022/06/06 08:59:04;;;;;;;2.10;1.90;;;;;;;29.66;44.83;98867.25;5046888;28;20037;-71
2022/06/06 09:02:03;;;;;;;3.35;1.73;;;;;;;29.05;47.34;98869.13;5037058;28;20401;-70
2022/06/06 09:05:06;;;;;;;3.85;2.22;;;;;;;29.91;45.53;98865.59;5042323;28;20498;-70
2022/06/06 09:07:40;;;;;;;4.15;2.40;;;;;;;28.83;50.21;98867.22;5042273;28;20041;-70
2022/06/06 09:10:26;;;;;;;2.53;1.70;;;;;;;27.84;51.18;98869.28;5039845;28;20029;-70
2022/06/06 09:13:11;;;;;;;7.00;2.53;;;;;;;28.83;50.29;98865.25;5045975;28;20052;-70
2022/06/06 09:15:46;;;;;;;5.65;2.50;;;;;;;28.83;52.10;98865.25;5046938;28;20460;-69
2022/06/06 09:18:26;;;;;;;3.55;2.00;;;;;;;28.40;53.61;98868.66;5050483;28;20035;-69
2022/06/06 09:21:04;;;;;;;3.58;2.13;;;;;;;28.58;51.84;98866.81;5036118;28;20579;-70
2022/06/06 09:23:48;;;;;;;2.78;1.70;;;;;;;30.71;44.96;98856.69;5047490;28;20033;-70
2022/06/06 09:26:43;;;;;;;2.13;1.52;;;;;;;30.84;44.99;98854.00;5046938;28;20021;-69
2022/06/06 09:29:26;;;;;;;5.53;1.98;;;;;;;31.16;41.23;98850.53;5047637;28;20025;-71
2022/06/06 09:32:04;;;;;;;5.63;1.83;;;;;;;32.77;38.46;98854.81;5047741;28;20402;-72
2022/06/06 09:35:02;;;;;;;2.85;1.70;;;;;;;33.41;36.76;98853.25;5049008;28;20385;-70
2022/06/06 09:37:55;;;;;;;2.83;2.05;;;;;;;32.33;38.95;98844.09;5028349;28;20025;-69
2022/06/06 09:41:06;;;;;;;4.75;2.05;;;;;;;32.29;38.48;98843.16;5047646;28;20485;-70
2022/06/06 09:43:41;;;;;;;3.00;1.90;;;;;;;33.32;37.25;98840.16;5048226;28;20375;-69
2022/06/06 09:46:25;;;;;;;2.90;1.60;;;;;;;32.60;37.04;98839.88;5047095;28;20046;-70
2022/06/06 09:48:57;;;;;;;2.67;1.35;;;;;;;32.68;35.83;98836.13;5055731;28;20029;-69
2022/06/06 09:51:41;;;;;;;5.28;1.60;;;;;;;33.95;34.99;98828.38;5049777;28;20382;-70
2022/06/06 10:01:11;;;;;;;3.20;1.92;;;;;;;34.02;32.58;98827.78;5050697;28;20067;-70
2022/06/06 10:04:09;;;;;;;2.58;1.40;;;;;;;32.40;34.61;98821.13;5055233;28;20021;-69
2022/06/06 10:07:15;;;;;;;2.05;1.27;;;;;;;29.40;40.48;98817.03;5045473;28;20499;-70
2022/06/06 10:10:05;;;;;;;1.70;1.33;;;;;;;27.66;46.49;98824.66;5038481;28;20048;-69
2022/06/06 10:12:42;;;;;;;4.25;1.40;;;;;;;26.41;46.43;98828.75;5047708;28;20525;-69
2022/06/06 10:15:34;;;;;;;3.67;1.50;;;;;;;25.08;50.25;98825.34;5045972;28;20033;-69
2022/06/06 10:18:29;;;;;;;3.58;2.03;;;;;;;25.37;49.64;98814.16;5051035;28;20028;-70
2022/06/06 10:21:23;;;;;;;2.17;1.60;;;;;;;24.83;53.82;98818.22;5045733;28;20033;-70
2022/06/06 10:23:54;;;;;;;4.20;1.58;;;;;;;23.89;56.45;98819.50;5046345;28;20718;-69
2022/06/06 10:26:34;;;;;;;3.70;1.60;;;;;;;24.19;57.59;98814.78;5047626;28;20029;-68
2022/06/06 10:29:22;;;;;;;2.35;1.50;;;;;;;24.05;58.80;98811.88;5047100;28;20059;-69
2022/06/06 10:32:17;;;;;;;4.07;1.55;;;;;;;23.49;63.51;98810.41;5050327;28;20148;-68
2022/06/06 10:35:18;;;;;;;2.70;1.80;;;;;;;23.15;65.58;98824.19;5048158;28;20402;-69
2022/06/06 10:37:58;;;;;;;3.15;1.60;;;;;;;22.72;69.45;98810.88;5040286;28;20096;-70
2022/06/06 10:40:45;;;;;;;2.72;1.50;;;;;;;22.57;71.60;98818.38;5033211;28;20032;-68
2022/06/06 10:43:40;;;;;;;2.53;1.70;;;;;;;22.37;73.67;98809.06;5050689;28;20067;-67
2022/06/06 10:46:25;;;;;;;2.10;1.58;;;;;;;22.19;78.06;98801.41;5047298;28;20104;-68
2022/06/06 10:49:09;;;;;;;5.60;1.60;;;;;;;22.38;74.20;98815.41;5043581;28;20064;-68
2022/06/06 10:52:13;;;;;;;2.30;1.50;;;;;;;22.38;75.15;98821.75;5045654;28;20086;-72
2022/06/06 10:55:00;;;;;;;2.45;1.67;;;;;;;22.74;69.45;98785.75;4994408;28;20041;-70
2022/06/06 10:57:37;;;;;;;2.50;1.60;;;;;;;23.07;67.24;98811.00;5047880;28;20025;-67
2022/06/06 11:00:18;;;;;;;3.95;1.60;;;;;;;23.93;63.16;98803.19;5046189;28;20585;-70
2022/06/06 11:03:25;;;;;;;3.03;1.50;;;;;;;26.93;51.38;98803.56;5045624;28;20052;-69
2022/06/06 11:05:53;;;;;;;2.50;1.48;;;;;;;30.90;42.97;98785.63;5004467;28;20106;-68
2022/06/06 11:08:43;;;;;;;3.88;1.00;;;;;;;31.84;35.45;98790.78;5055338;28;20087;-68
2022/06/06 11:11:30;;;;;;;2.40;1.13;;;;;;;33.56;33.62;98779.59;5050442;28;20033;-68
2022/06/06 11:14:19;;;;;;;1.35;0.90;;;;;;;33.90;32.76;98768.91;5048485;28;20029;-69
2022/06/06 11:16:59;;;;;;;2.60;0.90;;;;;;;33.88;33.94;98774.03;5049719;28;20118;-69
2022/06/06 11:19:49;;;;;;;1.83;0.93;;;;;;;30.88;35.65;98777.56;5048569;28;20035;-68
2022/06/06 11:22:24;;;;;;;2.83;1.05;;;;;;;30.76;36.90;98778.28;5033169;28;20123;-69
2022/06/06 11:24:58;;;;;;;1.45;0.90;;;;;;;30.55;38.96;98769.06;5036514;28;20820;-67
2022/06/06 11:27:29;;;;;;;1.60;1.02;;;;;;;30.31;38.70;98770.50;5040439;28;20051;-68
2022/06/06 11:30:03;;;;;;;1.60;0.98;;;;;;;28.09;41.92;98742.66;5028711;28;20033;-68
2022/06/06 11:33:10;;;;;;;2.40;1.20;;;;;;;29.87;40.39;98763.41;5051869;28;20029;-69
2022/06/06 11:36:13;;;;;;;2.38;1.10;;;;;;;31.06;37.29;98769.91;5040845;28;20039;-68
2022/06/06 11:39:15;;;;;;;2.25;0.90;;;;;;;31.62;36.56;98756.47;5050959;28;20107;-68
2022/06/06 11:42:06;;;;;;;2.35;0.75;;;;;;;32.94;35.04;98742.47;5012345;28;20037;-68
2022/06/06 11:44:48;;;;;;;2.40;0.82;;;;;;;34.60;33.41;98740.25;5044983;28;20635;-70
2022/06/06 11:47:38;;;;;;;1.35;0.80;;;;;;;33.69;32.40;98743.88;5044614;28;20076;-70
2022/06/06 11:50:34;;;;;;;1.95;0.90;;;;;;;31.15;36.85;98748.31;5048982;28;20041;-70
2022/06/06 11:53:36;;;;;;;1.52;0.98;;;;;;;29.11;38.77;98745.25;5042691;28;20037;-69
2022/06/06 11:56:04;;;;;;;1.02;0.85;;;;;;;28.67;39.14;98752.69;5042759;28;20060;-68
2022/06/06 11:59:04;;;;;;;3.05;0.98;;;;;;;27.87;40.26;98737.97;5041190;28;20116;-69
2022/06/06 12:02:21;;;;;;;0.82;0.80;;;;;;;27.98;41.34;98736.53;5041650;28;20119;-69
2022/06/06 12:05:15;;;;;;;2.50;0.90;;;;;;;25.91;46.41;98743.44;5003544;28;20053;-69
2022/06/06 12:08:10;;;;;;;4.22;0.90;;;;;;;25.47;45.26;98733.69;5041947;28;20028;-69
2022/06/06 12:10:56;;;;;;;10.15;1.10;;;;;;;25.82;46.03;98734.16;5037443;28;20025;-69
2022/06/06 12:13:54;;;;;;;3.20;0.98;;;;;;;25.73;48.26;98733.22;5038472;28;20710;-70
2022/06/06 12:17:00;;;;;;;3.15;0.95;;;;;;;25.84;49.05;98731.09;5045836;28;20038;-71
2022/06/06 12:20:09;;;;;;;5.78;1.00;;;;;;;25.74;48.77;98732.09;5034194;28;20024;-71
2022/06/06 12:22:53;;;;;;;;;;;;;;;25.36;51.45;98735.78;5023104;28;20048;-70
2022/06/06 12:25:56;;;;;;;1.67;1.17;;;;;;;24.97;51.42;98732.50;5036022;28;19920;-68
2022/06/06 12:28:52;;;;;;;2.08;1.05;;;;;;;25.12;53.80;98732.25;5055130;28;20059;-69
2022/06/06 12:31:29;;;;;;;3.28;1.33;;;;;;;25.14;52.19;98735.56;5045385;28;20037;-69
2022/06/06 12:34:12;;;;;;;3.88;0.93;;;;;;;24.92;52.65;98733.41;5048604;28;20103;-70
2022/06/06 12:36:56;;;;;;;5.95;1.20;;;;;;;24.65;54.30;98734.91;5034333;28;20017;-69
2022/06/06 12:39:30;;;;;;;5.10;1.20;;;;;;;24.33;52.88;98731.97;5038985;28;20497;-70
2022/06/06 12:42:09;;;;;;;2.70;1.20;;;;;;;24.27;54.50;98715.44;5037571;28;20037;-72
2022/06/06 12:44:53;;;;;;;3.20;0.98;;;;;;;24.37;51.65;98724.75;5035018;28;20124;-74
2022/06/06 12:47:48;;;;;;;2.38;1.00;;;;;;;25.09;53.51;98730.09;5043458;28;20028;-73
2022/06/06 12:50:46;;;;;;;2.92;1.00;;;;;;;26.23;51.14;98727.84;5045969;28;20620;-73
2022/06/06 12:53:20;;;;;;;5.65;1.23;;;;;;;26.72;44.19;98728.22;5039029;28;20068;-73